Terminal Aerodrome Forecast
Issued by NWS Goodland, KS

Home | Current Version | Previous Version | Text Only | Print | Product List | Glossary On
Versions: 1 2 3 4 5 6 7 8 9 10 11 12 13 14 15 16 17 18 19 20 21 22 23
767
FTUS43 KGLD 241600 AAE
TAFGLD
TAF AMD
KGLD 241600Z 2416/2512 12014KT P6SM BKN025
     FM241900 13012KT P6SM BKN035
     FM242100 15010KT P6SM SCT150
     FM250700 20010KT P6SM SCT200
     FM250900 28009KT P6SM SCT250=

USA.gov is the U.S. government's official web portal to all federal, state and local government web resources and services.